Time;durP1;ratioP1;P1;durP2;ratioP2;P2;SDS_P1;SDS_P2;PMS_P1;PMS_P2;Temp;Humidity;BMP_temperature;BMP_pressure;BME280_temperature;BME280_humidity;BME280_pressure;Samples;Min_cycle;Max_cycle;Signal;HPM_P1;HPM_P2
2022/08/21 00:00:21;;;;;;;5.40;4.47;;;;;;;17.82;94.99;98245.03;4176100;28;20734;-84
2022/08/21 00:02:27;;;;;;;5.10;4.60;;;;;;;17.80;94.87;98236.44;4177426;28;20621;-85
2022/08/21 00:04:31;;;;;;;6.17;4.93;;;;;;;17.75;94.96;98243.94;4173867;28;20625;-85
2022/08/21 00:06:35;;;;;;;6.27;5.27;;;;;;;17.71;94.85;98242.59;4173360;28;20622;-84
2022/08/21 00:08:38;;;;;;;4.93;4.40;;;;;;;17.69;94.92;98238.41;4177054;28;20676;-84
2022/08/21 00:10:42;;;;;;;5.70;4.80;;;;;;;17.64;94.67;98244.13;4176187;28;21499;-84
2022/08/21 00:12:45;;;;;;;5.30;4.80;;;;;;;17.60;94.42;98245.38;4201889;28;20636;-84
2022/08/21 00:14:49;;;;;;;4.93;4.43;;;;;;;17.57;94.76;98243.03;4176545;28;20633;-85
2022/08/21 00:16:52;;;;;;;5.80;5.20;;;;;;;17.54;94.11;98238.03;4177922;28;20624;-84
2022/08/21 00:18:59;;;;;;;5.80;4.80;;;;;;;17.53;94.84;98238.22;4177210;28;20624;-84
2022/08/21 00:21:04;;;;;;;5.20;4.70;;;;;;;17.52;94.75;98244.44;4177683;28;21258;-85
2022/08/21 00:23:07;;;;;;;6.50;5.33;;;;;;;17.50;94.43;98238.50;4174517;28;20628;-84
2022/08/21 00:25:11;;;;;;;6.67;4.70;;;;;;;17.46;94.94;98243.19;4173608;28;20632;-85
2022/08/21 00:27:14;;;;;;;5.70;4.97;;;;;;;17.44;94.75;98235.56;4177855;28;20623;-84
2022/08/21 00:29:17;;;;;;;4.57;4.17;;;;;;;17.40;93.73;98232.41;4177457;28;20702;-84
2022/08/21 00:31:20;;;;;;;6.63;4.73;;;;;;;17.35;93.72;98237.28;4177716;28;20646;-85
2022/08/21 00:33:23;;;;;;;7.77;4.70;;;;;;;17.28;93.64;98228.28;4158680;28;20633;-84
2022/08/21 00:35:29;;;;;;;5.60;4.07;;;;;;;17.25;93.74;98233.81;4189738;28;20628;-84
2022/08/21 00:37:33;;;;;;;4.93;4.50;;;;;;;17.22;93.75;98228.00;4175658;28;20625;-85
2022/08/21 00:39:37;;;;;;;5.63;4.70;;;;;;;17.21;94.43;98232.44;4173962;28;20628;-84
2022/08/21 00:41:40;;;;;;;5.30;4.70;;;;;;;17.18;93.70;98232.69;4178786;28;20759;-84
2022/08/21 00:43:43;;;;;;;4.30;3.90;;;;;;;17.18;94.18;98235.31;4177389;28;20640;-84
2022/08/21 00:45:46;;;;;;;6.37;4.40;;;;;;;17.13;94.06;98223.56;4178340;28;20653;-84
2022/08/21 00:47:50;;;;;;;4.47;4.07;;;;;;;17.10;94.60;98221.19;4177991;28;20665;-84
2022/08/21 00:49:53;;;;;;;6.23;4.33;;;;;;;17.07;94.49;98222.31;4174940;28;20612;-84
2022/08/21 00:51:59;;;;;;;4.80;4.30;;;;;;;17.03;94.49;98222.72;4177741;28;21376;-84
2022/08/21 00:54:05;;;;;;;5.57;4.40;;;;;;;16.99;94.46;98227.47;4179683;28;20640;-84
2022/08/21 00:56:20;;;;;;;6.30;4.00;;;;;;;16.94;94.04;98220.94;4167108;28;20616;-84
2022/08/21 00:58:23;;;;;;;5.57;4.33;;;;;;;16.90;92.99;98218.72;4179707;28;20620;-85
2022/08/21 01:00:30;;;;;;;5.10;4.13;;;;;;;16.84;93.20;98220.13;4162823;28;20664;-85
2022/08/21 01:02:33;;;;;;;4.80;3.80;;;;;;;16.83;94.57;98230.81;4178199;28;20863;-85
2022/08/21 01:04:37;;;;;;;5.00;4.20;;;;;;;16.80;94.38;98226.63;4176575;28;21214;-84
2022/08/21 01:06:40;;;;;;;5.33;3.87;;;;;;;16.76;93.89;98222.59;4174072;28;20623;-84
2022/08/21 01:08:44;;;;;;;4.93;4.03;;;;;;;16.72;93.97;98223.88;4174398;28;20675;-84
2022/08/21 01:10:53;;;;;;;6.23;4.83;;;;;;;16.70;93.99;98225.81;4173300;28;20672;-84
2022/08/21 01:13:01;;;;;;;7.03;5.47;;;;;;;16.69;93.88;98221.53;4176370;28;20668;-84
2022/08/21 01:15:07;;;;;;;5.40;4.73;;;;;;;16.69;95.15;98221.53;4163002;28;20634;-84
2022/08/21 01:17:11;;;;;;;8.00;5.20;;;;;;;16.65;93.61;98222.75;4178779;28;20627;-84
2022/08/21 01:19:16;;;;;;;6.87;5.47;;;;;;;16.64;94.39;98221.13;4177474;28;20628;-84
2022/08/21 01:21:23;;;;;;;7.67;5.17;;;;;;;16.62;94.71;98222.22;4177350;28;21019;-84
2022/08/21 01:23:31;;;;;;;6.47;5.33;;;;;;;16.58;93.51;98221.66;4180461;28;20667;-84
2022/08/21 01:25:35;;;;;;;8.53;5.40;;;;;;;16.56;93.93;98209.59;4179710;28;20743;-85
2022/08/21 01:27:39;;;;;;;7.20;5.43;;;;;;;16.55;95.35;98216.69;4175970;28;21027;-84
2022/08/21 01:29:45;;;;;;;6.80;4.93;;;;;;;16.52;94.69;98216.94;4175856;28;20706;-84
2022/08/21 01:31:49;;;;;;;7.37;5.60;;;;;;;16.50;94.47;98225.13;4160479;28;20698;-84
2022/08/21 01:33:52;;;;;;;8.03;6.00;;;;;;;16.46;93.34;98226.34;4179658;28;20631;-84
2022/08/21 01:35:56;;;;;;;8.53;5.43;;;;;;;16.44;95.86;98223.03;4175806;28;20731;-84
2022/08/21 01:38:01;;;;;;;15.10;5.80;;;;;;;16.40;94.38;98217.19;4179538;28;20640;-84
2022/08/21 01:40:06;;;;;;;10.60;5.93;;;;;;;16.37;94.07;98216.66;4163603;28;20624;-84
2022/08/21 01:42:10;;;;;;;17.87;5.83;;;;;;;16.34;95.58;98217.78;4157541;28;20656;-84
2022/08/21 01:44:14;;;;;;;23.13;6.10;;;;;;;16.32;95.40;98217.06;4203756;28;20684;-84
2022/08/21 01:46:18;;;;;;;26.70;5.70;;;;;;;16.31;96.45;98209.28;4180986;28;20639;-85
2022/08/21 01:48:21;;;;;;;15.20;5.80;;;;;;;16.26;95.89;98212.34;4176805;28;20717;-84
2022/08/21 01:50:25;;;;;;;18.80;5.97;;;;;;;16.24;96.97;98210.84;4176985;28;20642;-84
2022/08/21 01:52:30;;;;;;;32.23;7.10;;;;;;;16.22;96.50;98207.47;4179793;28;20663;-84
2022/08/21 01:54:35;;;;;;;13.40;6.30;;;;;;;16.23;97.74;98209.16;4176703;28;20634;-85
2022/08/21 01:56:39;;;;;;;9.50;5.47;;;;;;;16.24;97.17;98208.19;4180147;28;20671;-84
2022/08/21 01:58:45;;;;;;;11.07;5.47;;;;;;;16.22;97.36;98207.47;4176091;28;20631;-84
2022/08/21 02:00:49;;;;;;;8.47;5.30;;;;;;;16.22;96.23;98208.34;4179399;28;20631;-84
2022/08/21 02:02:55;;;;;;;9.60;5.10;;;;;;;16.21;95.42;98205.81;4173972;28;20644;-84
2022/08/21 02:04:59;;;;;;;6.03;5.43;;;;;;;16.19;97.01;98197.19;4165368;28;20638;-84
2022/08/21 02:07:03;;;;;;;14.10;5.27;;;;;;;16.18;95.08;98200.81;4177256;28;20651;-84
2022/08/21 02:09:11;;;;;;;10.80;5.53;;;;;;;16.18;96.63;98201.63;4179233;28;20655;-84
2022/08/21 02:11:16;;;;;;;8.57;4.93;;;;;;;16.16;95.94;98202.72;4163024;28;21015;-84
2022/08/21 02:13:20;;;;;;;9.60;4.67;;;;;;;16.13;96.39;98200.38;4180017;28;20646;-84
2022/08/21 02:15:23;;;;;;;11.80;5.10;;;;;;;16.11;97.25;98197.03;4173737;28;20672;-84
2022/08/21 02:17:27;;;;;;;10.20;4.53;;;;;;;16.10;96.28;98192.75;4171073;28;20652;-84
2022/08/21 02:19:31;;;;;;;15.63;5.00;;;;;;;16.05;95.28;98200.22;4176240;28;20631;-84
2022/08/21 02:21:43;;;;;;;7.10;4.63;;;;;;;15.98;95.43;98188.56;4175774;28;20635;-84
2022/08/21 02:23:47;;;;;;;11.17;4.77;;;;;;;15.96;96.16;98197.56;4177881;28;20640;-84
2022/08/21 02:25:50;;;;;;;17.70;5.03;;;;;;;15.97;96.04;98196.63;4173323;28;21217;-84
2022/08/21 02:27:56;;;;;;;25.33;5.90;;;;;;;15.95;96.53;98193.28;4205654;28;20637;-84
2022/08/21 02:29:59;;;;;;;7.37;4.63;;;;;;;15.91;96.27;98200.63;4172632;28;20709;-84
2022/08/21 02:32:03;;;;;;;14.57;4.43;;;;;;;15.86;95.47;98196.72;4171895;28;20773;-84
2022/08/21 02:34:08;;;;;;;7.63;4.10;;;;;;;15.81;94.92;98199.75;4174665;28;20638;-84
2022/08/21 02:36:12;;;;;;;8.67;4.40;;;;;;;15.79;95.71;98192.97;4176746;28;20678;-84
2022/08/21 02:38:18;;;;;;;6.93;4.20;;;;;;;15.74;95.16;98190.75;4175938;28;20635;-84
2022/08/21 02:40:24;;;;;;;5.83;3.60;;;;;;;15.70;94.38;98201.66;4206550;28;20980;-84
2022/08/21 02:42:28;;;;;;;7.87;4.10;;;;;;;15.68;94.19;98193.91;4178015;28;20678;-84
2022/08/21 02:44:32;;;;;;;23.03;4.97;;;;;;;15.69;96.12;98203.44;4169894;28;20627;-84
2022/08/21 02:46:37;;;;;;;13.60;4.90;;;;;;;15.68;97.53;98193.91;4174020;28;20653;-84
2022/08/21 02:48:41;;;;;;;10.77;4.90;;;;;;;15.67;95.39;98196.66;4158465;28;20698;-84
2022/08/21 02:50:47;;;;;;;8.03;4.47;;;;;;;15.64;95.10;98192.50;4174488;28;20662;-84
2022/08/21 02:52:52;;;;;;;5.93;4.00;;;;;;;15.63;94.59;98187.38;4202071;28;20637;-84
2022/08/21 02:54:57;;;;;;;7.83;4.10;;;;;;;15.65;95.55;98193.31;4172789;28;21211;-84
2022/08/21 02:57:00;;;;;;;5.47;3.73;;;;;;;15.64;95.15;98189.03;4180862;28;20642;-84
2022/08/21 02:59:04;;;;;;;5.60;4.27;;;;;;;15.62;94.08;98197.06;4178983;28;20638;-84
2022/08/21 03:01:10;;;;;;;7.37;4.00;;;;;;;15.59;95.83;98184.19;4172617;28;20976;-84
2022/08/21 03:03:13;;;;;;;11.10;4.00;;;;;;;15.57;96.29;98193.16;4172302;28;21069;-84
2022/08/21 03:05:17;;;;;;;9.07;3.87;;;;;;;15.55;95.24;98184.56;4173620;28;20627;-84
2022/08/21 03:07:21;;;;;;;8.40;4.00;;;;;;;15.55;94.96;98183.75;4174489;28;20627;-84
2022/08/21 03:09:24;;;;;;;8.30;4.50;;;;;;;15.54;95.02;98176.81;4169123;28;20622;-84
2022/08/21 03:11:28;;;;;;;21.57;5.43;;;;;;;15.51;95.66;98188.44;4175675;28;20625;-84
2022/08/21 03:13:31;;;;;;;11.80;5.47;;;;;;;15.49;96.24;98179.03;4178698;28;20626;-84
2022/08/21 03:15:35;;;;;;;23.63;5.23;;;;;;;15.50;97.40;98180.66;4176704;28;20629;-84
2022/08/21 03:17:39;;;;;;;27.40;6.03;;;;;;;15.51;96.15;98182.34;4171708;28;20658;-84
2022/08/21 03:19:43;;;;;;;9.80;4.30;;;;;;;15.49;97.26;98186.91;4174715;28;20672;-84
2022/08/21 03:21:46;;;;;;;12.53;4.40;;;;;;;15.45;96.69;98186.31;4175579;28;20630;-84
2022/08/21 03:23:49;;;;;;;10.50;5.20;;;;;;;15.44;97.46;98182.06;4176487;28;20626;-84
2022/08/21 03:25:52;;;;;;;15.90;4.67;;;;;;;15.44;96.81;98186.47;4161257;28;20642;-84
2022/08/21 03:27:58;;;;;;;11.63;4.63;;;;;;;15.43;96.20;98193.53;4175001;28;20634;-84
2022/08/21 03:30:04;;;;;;;10.87;4.93;;;;;;;15.43;97.84;98190.06;4178198;28;20720;-84
2022/08/21 03:32:09;;;;;;;14.97;5.17;;;;;;;15.43;97.72;98195.31;4177821;28;20714;-84
2022/08/21 03:34:13;;;;;;;23.17;4.67;;;;;;;15.42;96.55;98191.03;4175234;28;20632;-84
2022/08/21 03:36:17;;;;;;;13.33;5.00;;;;;;;15.44;95.45;98191.72;4175184;28;20618;-84
2022/08/21 03:38:20;;;;;;;25.73;5.70;;;;;;;15.43;97.20;98190.06;4179419;28;20973;-84
2022/08/21 03:40:29;;;;;;;18.30;5.00;;;;;;;15.41;96.65;98186.72;4175677;28;20664;-84
2022/08/21 03:42:31;;;;;;;13.67;5.10;;;;;;;15.37;97.19;98191.41;4161364;28;20635;-84
2022/08/21 03:44:35;;;;;;;18.13;5.77;;;;;;;15.37;97.71;98190.59;4174311;28;20643;-84
2022/08/21 03:46:39;;;;;;;26.27;6.17;;;;;;;15.37;97.67;98201.09;4172400;28;20693;-84
2022/08/21 03:48:42;;;;;;;16.27;5.73;;;;;;;15.36;95.97;98202.06;4188052;28;20704;-84
2022/08/21 03:50:49;;;;;;;14.93;5.47;;;;;;;15.35;95.82;98203.00;4205816;28;20661;-84
2022/08/21 03:52:52;;;;;;;5.80;4.40;;;;;;;15.33;97.62;98210.22;4170998;28;21198;-83
2022/08/21 03:54:55;;;;;;;9.87;4.77;;;;;;;15.30;97.74;98199.94;4172097;28;20685;-84
2022/08/21 03:56:58;;;;;;;13.93;5.33;;;;;;;15.30;96.26;98202.59;4178721;28;20686;-84
2022/08/21 03:59:01;;;;;;;12.40;5.13;;;;;;;15.30;97.50;98206.03;4206829;28;21022;-84
2022/08/21 04:01:06;;;;;;;12.93;4.50;;;;;;;15.29;96.83;98211.41;4173683;28;20626;-84
2022/08/21 04:03:09;;;;;;;16.63;5.63;;;;;;;15.26;97.32;98202.03;4161539;28;20613;-84
2022/08/21 04:05:13;;;;;;;24.40;4.90;;;;;;;15.23;95.67;98210.16;4175830;28;20658;-84
2022/08/21 04:07:18;;;;;;;19.40;5.40;;;;;;;15.22;96.66;98212.94;4177653;28;21084;-84
2022/08/21 04:09:21;;;;;;;24.93;6.30;;;;;;;15.20;96.29;98212.22;4177711;28;21205;-84
2022/08/21 04:11:24;;;;;;;13.80;5.50;;;;;;;15.15;97.01;98217.84;4177577;28;21026;-84
2022/08/21 04:13:28;;;;;;;15.77;5.30;;;;;;;15.14;96.23;98218.78;4177977;28;20641;-84
2022/08/21 04:15:31;;;;;;;18.50;5.60;;;;;;;15.10;97.08;98219.19;4171230;28;20637;-84
2022/08/21 04:17:34;;;;;;;58.27;6.90;;;;;;;15.10;96.22;98214.75;4176527;28;20650;-84
2022/08/21 04:19:37;;;;;;;18.27;5.27;;;;;;;15.10;96.04;98220.00;4177550;28;21081;-84
2022/08/21 04:21:41;;;;;;;29.83;6.30;;;;;;;15.11;97.75;98226.13;4178893;28;21365;-84
2022/08/21 04:23:47;;;;;;;18.73;5.40;;;;;;;15.11;96.04;98231.38;4177546;28;20638;-84
2022/08/21 04:25:50;;;;;;;33.00;7.47;;;;;;;15.11;95.67;98223.47;4174983;28;20679;-84
2022/08/21 04:27:53;;;;;;;21.10;4.90;;;;;;;15.08;95.89;98226.38;4179536;28;20629;-84
2022/08/21 04:29:56;;;;;;;18.27;4.90;;;;;;;15.07;97.37;98231.75;4178010;28;20686;-83
2022/08/21 04:31:59;;;;;;;9.77;4.20;;;;;;;15.04;97.35;98238.09;4177785;28;21013;-84
2022/08/21 04:34:02;;;;;;;15.80;5.43;;;;;;;15.04;96.32;98237.25;4162291;28;20634;-84
2022/08/21 04:36:06;;;;;;;15.47;5.50;;;;;;;15.01;96.62;98235.72;4175869;28;20733;-84
2022/08/21 04:38:09;;;;;;;21.17;5.13;;;;;;;14.97;96.46;98234.28;4205346;28;20637;-84
2022/08/21 04:40:16;;;;;;;12.33;5.10;;;;;;;14.94;96.10;98242.44;4176153;28;20632;-84
2022/08/21 04:42:20;;;;;;;13.07;4.93;;;;;;;14.91;95.81;98245.31;4164118;28;20645;-84
2022/08/21 04:44:23;;;;;;;18.93;4.93;;;;;;;14.87;96.41;98246.53;4173439;28;20641;-83
2022/08/21 04:46:26;;;;;;;10.87;5.07;;;;;;;14.84;97.44;98245.94;4178700;28;20625;-83
2022/08/21 04:48:29;;;;;;;7.97;4.60;;;;;;;14.84;96.34;98249.41;4163827;28;21083;-84
2022/08/21 04:50:38;;;;;;;9.87;4.50;;;;;;;14.85;96.33;98248.44;4175733;28;20699;-84
2022/08/21 04:52:41;;;;;;;4.37;3.80;;;;;;;14.86;96.41;98252.75;4190099;28;20633;-84
2022/08/21 04:54:46;;;;;;;4.80;3.67;;;;;;;14.89;95.56;98255.13;4170176;28;20626;-84
2022/08/21 04:56:53;;;;;;;4.03;3.63;;;;;;;14.92;97.20;98252.25;4176570;28;20696;-84
2022/08/21 04:58:58;;;;;;;7.70;4.00;;;;;;;14.94;96.01;98258.19;4178422;28;20656;-84
2022/08/21 05:01:03;;;;;;;6.60;4.77;;;;;;;14.97;95.75;98255.31;4176231;28;20630;-84
2022/08/21 05:03:07;;;;;;;18.30;5.77;;;;;;;14.99;95.11;98256.03;4157401;28;21027;-84
2022/08/21 05:05:10;;;;;;;24.80;5.10;;;;;;;14.98;95.39;98262.22;4172066;28;20732;-84
2022/08/21 05:07:16;;;;;;;27.20;6.50;;;;;;;14.97;94.64;98265.00;4172977;28;20684;-84
2022/08/21 05:09:40;;;;;;;26.53;6.30;;;;;;;14.99;97.27;98263.91;4174483;28;20635;-84
2022/08/21 05:11:43;;;;;;;26.33;5.70;;;;;;;15.03;95.47;98270.56;4165326;28;20758;-83
2022/08/21 05:13:48;;;;;;;15.97;5.13;;;;;;;15.04;95.53;98266.97;4171293;28;20636;-84
2022/08/21 05:15:58;;;;;;;7.87;4.90;;;;;;;15.01;94.26;98271.66;4173545;28;20656;-84
2022/08/21 05:18:01;;;;;;;5.70;4.50;;;;;;;15.03;95.09;98269.72;4176984;28;21253;-84
2022/08/21 05:20:05;;;;;;;4.40;4.00;;;;;;;15.09;95.30;98267.41;4174993;28;20626;-84
2022/08/21 05:22:09;;;;;;;5.93;4.60;;;;;;;15.17;96.06;98272.94;4173354;28;20688;-84
2022/08/21 05:24:12;;;;;;;5.23;4.37;;;;;;;15.24;95.60;98274.88;4172012;28;20691;-84
2022/08/21 05:26:15;;;;;;;10.33;5.03;;;;;;;15.33;96.56;98279.38;4177519;28;20629;-84
2022/08/21 05:28:20;;;;;;;6.17;5.07;;;;;;;15.42;95.78;98272.50;4180267;28;20698;-84
2022/08/21 05:30:25;;;;;;;5.10;4.60;;;;;;;15.48;96.34;98277.25;4180048;28;21281;-83
2022/08/21 05:32:28;;;;;;;4.97;4.30;;;;;;;15.53;94.16;98275.06;4159914;28;20743;-84
2022/08/21 05:34:31;;;;;;;4.50;3.93;;;;;;;15.58;93.16;98268.44;4182227;28;20612;-84
2022/08/21 05:36:35;;;;;;;4.50;4.10;;;;;;;15.73;94.31;98282.94;4176264;28;20688;-84
2022/08/21 05:38:38;;;;;;;4.80;4.40;;;;;;;15.87;93.68;98286.00;4173257;28;20624;-84
2022/08/21 05:40:41;;;;;;;13.47;5.10;;;;;;;16.02;92.62;98283.88;4176965;28;20701;-84
2022/08/21 05:42:44;;;;;;;6.00;4.70;;;;;;;16.11;92.19;98289.16;4176949;28;20642;-84
2022/08/21 05:44:57;;;;;;;11.20;5.73;;;;;;;16.23;92.56;98293.38;4159832;28;20766;-84
2022/08/21 05:47:05;;;;;;;5.93;5.33;;;;;;;16.37;93.67;98291.19;4173799;28;20639;-84
2022/08/21 05:49:08;;;;;;;6.33;5.73;;;;;;;16.54;92.91;98286.09;4175823;28;20632;-84
2022/08/21 05:51:17;;;;;;;6.00;5.40;;;;;;;16.68;92.23;98290.16;4159531;28;20751;-84
2022/08/21 05:53:22;;;;;;;6.63;4.93;;;;;;;16.80;92.33;98289.06;4159926;28;20638;-84
2022/08/21 05:55:25;;;;;;;5.37;4.87;;;;;;;17.03;91.37;98293.88;4178397;28;20629;-83
2022/08/21 05:57:35;;;;;;;6.33;5.70;;;;;;;17.21;89.60;98294.88;4179986;28;20688;-84
2022/08/21 05:59:38;;;;;;;6.17;5.57;;;;;;;17.42;90.06;98296.38;4179417;28;20630;-84
2022/08/21 06:01:41;;;;;;;6.53;5.27;;;;;;;17.64;89.26;98290.78;4206516;28;20704;-84
2022/08/21 06:03:46;;;;;;;6.00;5.40;;;;;;;17.85;88.77;98296.69;4172885;28;20669;-84
2022/08/21 06:05:49;;;;;;;5.80;5.20;;;;;;;18.09;89.10;98297.84;4179533;28;21233;-84
2022/08/21 06:07:52;;;;;;;7.10;5.13;;;;;;;18.30;87.45;98303.75;4178193;28;20664;-84
2022/08/21 06:09:56;;;;;;;7.93;5.10;;;;;;;18.48;86.92;98303.63;4176125;28;20650;-84
2022/08/21 06:11:59;;;;;;;6.20;5.10;;;;;;;18.70;86.96;98308.53;4170743;28;20643;-84
2022/08/21 06:14:02;;;;;;;6.73;5.77;;;;;;;18.87;85.30;98297.13;4168234;28;20625;-84
2022/08/21 06:16:08;;;;;;;6.63;5.00;;;;;;;19.03;84.62;98303.44;4176238;28;20689;-84
2022/08/21 06:18:11;;;;;;;5.93;5.33;;;;;;;19.18;84.52;98309.81;4173482;28;20674;-84
2022/08/21 06:20:16;;;;;;;6.17;4.87;;;;;;;19.31;83.68;98306.81;4177296;28;20666;-84
2022/08/21 06:22:19;;;;;;;5.27;4.73;;;;;;;19.45;83.32;98307.06;4154440;28;21016;-84
2022/08/21 06:24:22;;;;;;;5.43;4.70;;;;;;;19.58;83.41;98310.97;4178683;28;20633;-85
2022/08/21 06:26:25;;;;;;;5.83;5.17;;;;;;;19.73;82.26;98304.13;4177121;28;20695;-84
2022/08/21 06:28:28;;;;;;;6.17;4.87;;;;;;;19.87;82.90;98306.22;4179378;28;20652;-84
2022/08/21 06:30:32;;;;;;;5.93;5.23;;;;;;;20.01;81.85;98313.59;4172648;28;20626;-84
2022/08/21 06:32:35;;;;;;;6.20;5.60;;;;;;;20.18;82.80;98310.06;4161920;28;21029;-84
2022/08/21 06:34:39;;;;;;;5.83;5.30;;;;;;;20.34;81.86;98308.28;4191420;28;20633;-84
2022/08/21 06:36:43;;;;;;;9.00;5.00;;;;;;;20.53;82.12;98310.69;4174577;28;20635;-85
2022/08/21 06:38:47;;;;;;;9.90;6.10;;;;;;;20.69;81.22;98303.66;4170905;28;21209;-84
2022/08/21 06:40:53;;;;;;;6.00;5.50;;;;;;;20.81;80.19;98307.66;4162594;28;20649;-85
2022/08/21 06:42:57;;;;;;;6.30;5.40;;;;;;;21.00;80.53;98308.19;4203960;28;21221;-85
2022/08/21 06:45:01;;;;;;;5.77;5.00;;;;;;;21.18;78.94;98316.00;4172412;28;20646;-84
2022/08/21 06:47:04;;;;;;;5.33;4.83;;;;;;;21.30;78.25;98311.03;4178850;28;20662;-85
2022/08/21 06:49:07;;;;;;;5.60;4.70;;;;;;;21.44;78.11;98312.19;4174226;28;20649;-85
2022/08/21 06:51:19;;;;;;;6.90;5.10;;;;;;;21.58;78.32;98315.03;4174412;28;21185;-85
2022/08/21 06:53:24;;;;;;;6.40;5.20;;;;;;;21.69;77.66;98312.03;4172388;28;20660;-84
2022/08/21 06:55:27;;;;;;;5.60;4.93;;;;;;;21.86;77.95;98305.69;4171749;28;21342;-85
2022/08/21 06:57:31;;;;;;;8.20;5.07;;;;;;;21.99;76.46;98304.16;4175431;28;20657;-85
2022/08/21 06:59:34;;;;;;;5.33;4.83;;;;;;;22.23;78.23;98302.28;4160484;28;20617;-85
2022/08/21 07:01:37;;;;;;;6.50;5.40;;;;;;;22.46;77.81;98307.69;4177974;28;20697;-85
2022/08/21 07:03:42;;;;;;;6.50;5.20;;;;;;;22.65;75.92;98310.75;4178908;28;20628;-85
2022/08/21 07:05:45;;;;;;;7.70;5.20;;;;;;;22.83;76.63;98311.34;4178153;28;20637;-85
2022/08/21 07:07:48;;;;;;;5.50;4.90;;;;;;;22.97;76.12;98307.94;4178458;28;20664;-85
2022/08/21 07:09:53;;;;;;;6.40;5.00;;;;;;;23.06;76.08;98310.38;4178582;28;20628;-85
2022/08/21 07:11:57;;;;;;;6.33;5.03;;;;;;;23.24;76.31;98303.78;4175181;28;20640;-85
2022/08/21 07:14:00;;;;;;;5.20;4.70;;;;;;;23.42;74.49;98306.94;4177858;28;20645;-85
2022/08/21 07:16:03;;;;;;;6.60;4.40;;;;;;;23.60;71.99;98310.13;4173245;28;20625;-85
2022/08/21 07:18:07;;;;;;;7.10;4.80;;;;;;;23.64;70.47;98308.78;4158736;28;20704;-85
2022/08/21 07:20:10;;;;;;;7.20;4.17;;;;;;;23.66;70.54;98311.28;4179044;28;20627;-86
2022/08/21 07:22:16;;;;;;;7.13;4.17;;;;;;;23.78;68.42;98305.31;4174978;28;20621;-85
2022/08/21 07:24:19;;;;;;;5.33;4.20;;;;;;;23.99;69.91;98298.28;4174836;28;21116;-86
2022/08/21 07:26:25;;;;;;;9.90;4.73;;;;;;;24.15;68.72;98306.94;4175593;28;20641;-85
2022/08/21 07:28:29;;;;;;;6.13;3.83;;;;;;;24.21;67.75;98297.38;4187130;28;20661;-86
2022/08/21 07:30:32;;;;;;;4.90;4.43;;;;;;;24.29;68.41;98291.94;4176628;28;20646;-86
2022/08/21 07:32:36;;;;;;;5.90;4.70;;;;;;;24.41;69.40;98293.97;4178210;28;20691;-86
2022/08/21 07:34:39;;;;;;;5.50;4.50;;;;;;;24.58;69.39;98297.28;4177030;28;20627;-85
2022/08/21 07:36:42;;;;;;;10.63;5.40;;;;;;;24.78;68.16;98296.50;4175267;28;20712;-86
2022/08/21 07:38:45;;;;;;;4.80;4.30;;;;;;;24.90;67.05;98303.03;4188137;28;21058;-86
2022/08/21 07:40:50;;;;;;;6.17;5.10;;;;;;;24.98;68.47;98297.56;4176429;28;20623;-86
2022/08/21 07:42:54;;;;;;;9.20;5.17;;;;;;;25.07;68.42;98296.47;4177545;28;20649;-86
2022/08/21 07:44:57;;;;;;;8.30;5.07;;;;;;;25.13;66.74;98291.16;4176757;28;20634;-86
2022/08/21 07:47:00;;;;;;;5.97;5.00;;;;;;;25.16;65.58;98296.94;4178360;28;20642;-86
2022/08/21 07:49:04;;;;;;;6.97;4.90;;;;;;;25.27;67.89;98293.78;4171309;28;20623;-86
2022/08/21 07:51:09;;;;;;;5.90;5.30;;;;;;;25.47;67.00;98292.13;4178670;28;20651;-86
2022/08/21 07:53:12;;;;;;;6.10;4.77;;;;;;;25.62;67.69;98292.88;4159568;28;20662;-86
2022/08/21 07:55:17;;;;;;;5.37;4.87;;;;;;;25.73;66.87;98290.50;4173473;28;20621;-86
2022/08/21 07:57:21;;;;;;;6.33;5.20;;;;;;;25.71;65.61;98286.41;4161601;28;20629;-85
2022/08/21 07:59:25;;;;;;;5.67;4.77;;;;;;;25.68;65.27;98286.78;4174003;28;20668;-85
2022/08/21 08:01:28;;;;;;;6.47;5.80;;;;;;;25.77;66.64;98288.28;4176085;28;20639;-86
2022/08/21 08:03:31;;;;;;;9.20;6.10;;;;;;;25.81;64.88;98287.69;4176935;28;20640;-86
2022/08/21 08:05:36;;;;;;;6.30;5.20;;;;;;;25.91;64.35;98287.38;4178734;28;20626;-85
2022/08/21 08:07:40;;;;;;;7.77;5.70;;;;;;;25.97;64.69;98284.72;4174347;28;20786;-86
2022/08/21 08:09:43;;;;;;;8.73;6.30;;;;;;;26.04;65.29;98272.25;4176562;28;20613;-86
2022/08/21 08:11:46;;;;;;;9.20;5.13;;;;;;;26.16;64.58;98278.66;4175146;28;20952;-86
2022/08/21 08:13:51;;;;;;;7.10;5.47;;;;;;;26.20;64.59;98278.06;4173286;28;20654;-86
2022/08/21 08:15:55;;;;;;;6.73;5.40;;;;;;;26.27;64.37;98270.97;4171088;28;20670;-86
2022/08/21 08:17:58;;;;;;;6.90;5.53;;;;;;;26.32;64.32;98267.69;4170236;28;20683;-86
2022/08/21 08:20:02;;;;;;;7.20;5.90;;;;;;;26.41;64.61;98270.00;4175079;28;20622;-86
2022/08/21 08:22:14;;;;;;;6.00;5.40;;;;;;;26.50;63.31;98268.81;4203437;28;21081;-86
2022/08/21 08:24:17;;;;;;;9.87;5.27;;;;;;;26.58;63.02;98265.94;4174806;28;21197;-85
2022/08/21 08:26:21;;;;;;;9.20;6.03;;;;;;;26.62;63.21;98262.66;4177284;28;20634;-86
2022/08/21 08:28:25;;;;;;;8.63;6.37;;;;;;;26.64;62.77;98257.97;4180714;28;20633;-86
2022/08/21 08:30:28;;;;;;;7.33;6.17;;;;;;;26.67;63.15;98254.88;4177839;28;21203;-86
2022/08/21 08:32:36;;;;;;;7.10;5.73;;;;;;;26.68;62.91;98253.84;4172654;28;20632;-86
2022/08/21 08:34:39;;;;;;;7.37;6.37;;;;;;;26.80;63.07;98254.09;4172323;28;20986;-86
2022/08/21 08:36:42;;;;;;;8.97;6.00;;;;;;;26.85;62.16;98254.31;4174099;28;20703;-86
2022/08/21 08:38:46;;;;;;;7.97;5.90;;;;;;;26.85;62.91;98243.59;4157874;28;20723;-86
2022/08/21 08:40:54;;;;;;;8.77;6.10;;;;;;;26.90;63.01;98238.47;4174097;28;21188;-86
2022/08/21 08:42:57;;;;;;;7.67;6.37;;;;;;;26.97;63.25;98242.00;4177708;28;20628;-86
2022/08/21 08:45:03;;;;;;;10.00;6.53;;;;;;;27.02;61.44;98242.22;4174776;28;21008;-86
2022/08/21 08:47:07;;;;;;;7.80;6.10;;;;;;;27.09;62.53;98235.84;4177961;28;20981;-86
2022/08/21 08:49:15;;;;;;;7.30;6.33;;;;;;;27.15;63.43;98235.03;4170567;28;20628;-86
2022/08/21 08:51:24;;;;;;;10.20;6.60;;;;;;;27.37;63.15;98236.50;4177654;28;20698;-86
2022/08/21 08:53:31;;;;;;;6.20;5.60;;;;;;;27.51;62.04;98232.81;4176750;28;20711;-86
2022/08/21 08:55:41;;;;;;;7.43;6.57;;;;;;;27.56;60.63;98242.72;4187102;28;21038;-86
2022/08/21 08:57:46;;;;;;;9.23;6.50;;;;;;;27.69;61.70;98240.00;4175755;28;20635;-85
2022/08/21 08:59:54;;;;;;;7.90;6.77;;;;;;;27.62;60.79;98238.38;4178621;28;20655;-86
2022/08/21 09:01:58;;;;;;;8.20;6.70;;;;;;;27.67;58.99;98235.91;4193305;28;20662;-86
2022/08/21 09:04:01;;;;;;;8.47;6.50;;;;;;;27.67;58.17;98231.34;4178255;28;21077;-86
2022/08/21 09:06:11;;;;;;;8.03;6.50;;;;;;;27.72;59.83;98238.78;4175725;28;20647;-86
2022/08/21 09:08:33;;;;;;;8.60;6.70;;;;;;;27.84;59.89;98235.25;4177623;28;21441;-86
2022/08/21 09:10:42;;;;;;;7.43;6.30;;;;;;;27.90;60.46;98233.59;4194239;28;20634;-86
2022/08/21 09:12:57;;;;;;;10.87;6.93;;;;;;;28.04;59.74;98231.50;4177115;28;20626;-86
2022/08/21 09:15:07;;;;;;;7.97;7.23;;;;;;;28.06;58.96;98226.75;4178275;28;21104;-86
2022/08/21 09:17:17;;;;;;;7.90;7.10;;;;;;;27.99;59.16;98216.25;4180457;28;20640;-85
2022/08/21 09:19:30;;;;;;;7.90;6.30;;;;;;;28.00;60.10;98208.81;4175124;28;20644;-86
2022/08/21 09:21:41;;;;;;;7.20;6.00;;;;;;;28.14;58.23;98213.13;4179743;28;20639;-86
2022/08/21 09:23:53;;;;;;;7.13;6.30;;;;;;;28.25;60.02;98212.50;4179842;28;20619;-85
2022/08/21 09:26:00;;;;;;;8.90;6.77;;;;;;;28.30;59.55;98215.34;4163636;28;21031;-86
2022/08/21 09:28:03;;;;;;;7.53;6.43;;;;;;;28.34;58.56;98213.06;4169798;28;20628;-85
2022/08/21 09:30:09;;;;;;;7.53;6.47;;;;;;;28.35;58.94;98212.03;4179842;28;20640;-86
2022/08/21 09:32:18;;;;;;;8.50;7.03;;;;;;;28.35;58.13;98201.28;4179096;28;20640;-86
2022/08/21 09:34:26;;;;;;;7.43;6.43;;;;;;;28.27;58.45;98199.66;4180014;28;20667;-86
2022/08/21 09:36:37;;;;;;;12.37;6.50;;;;;;;28.33;59.18;98201.50;4176987;28;21096;-86
2022/08/21 09:38:42;;;;;;;8.07;6.77;;;;;;;28.27;57.57;98205.03;4178637;28;21136;-85
2022/08/21 09:40:47;;;;;;;10.63;7.17;;;;;;;28.29;58.60;98205.63;4178770;28;20632;-86
2022/08/21 09:42:56;;;;;;;9.60;5.70;;;;;;;28.35;60.21;98204.78;4177921;28;20651;-86
2022/08/21 09:45:12;;;;;;;8.23;6.20;;;;;;;28.37;59.12;98200.06;4179601;28;21207;-86